Time,TemperatureF,DewpointF,PressureIn,WindDirection,WindDirectionDegrees,WindSpeedMPH,WindSpeedGustMPH,Humidity,HourlyPrecipIn,Conditions,Clouds,dailyrainin,SoftwareType,DateUTC
2013-02-04 09:08:00,42.3,29.8,30.01,North,10,0.0,0.0,61,0.00,,,0.00,vanprod-2.3,2013-02-04 16:08:00,
2013-02-04 09:48:00,41.8,30.1,30.03,North,10,0.0,0.0,63,0.00,,,0.00,vanprod-2.3,2013-02-04 16:48:00,
2013-02-04 10:08:00,42.5,31.6,30.03,North,10,2.0,3.0,65,0.00,,,0.00,vanprod-2.3,2013-02-04 17:08:00,
2013-02-04 10:18:00,42.9,32.0,30.03,North,10,1.0,0.0,65,0.00,,,0.00,vanprod-2.3,2013-02-04 17:18:00,
2013-02-04 10:24:00,43.3,31.6,30.03,North,10,2.0,4.0,63,0.00,,,0.00,vanprod-2.3,2013-02-04 17:24:00,
2013-02-04 10:30:00,43.9,32.5,30.01,North,10,0.0,0.0,64,0.00,,,0.00,vanprod-2.3,2013-02-04 17:30:00,
2013-02-04 10:34:00,44.5,31.9,30.02,North,10,0.0,2.0,61,0.00,,,0.00,vanprod-2.3,2013-02-04 17:34:00,
2013-02-04 10:40:00,44.8,30.9,30.01,North,10,3.0,6.0,58,0.00,,,0.00,vanprod-2.3,2013-02-04 17:40:00,
2013-02-04 10:46:00,44.8,31.4,30.01,North,10,0.0,2.0,59,0.00,,,0.00,vanprod-2.3,2013-02-04 17:46:00,
2013-02-04 10:52:00,45.1,30.8,30.01,North,10,3.0,6.0,57,0.00,,,0.00,vanprod-2.3,2013-02-04 17:52:00,
2013-02-04 10:58:00,45.8,30.6,30.00,North,10,3.0,6.0,55,0.00,,,0.00,vanprod-2.3,2013-02-04 17:58:00,
2013-02-04 11:04:00,46.2,30.5,30.00,North,10,0.0,4.0,54,0.00,,,0.00,vanprod-2.3,2013-02-04 18:04:00,
2013-02-04 11:10:00,47.0,30.8,29.98,North,10,2.0,5.0,53,0.00,,,0.00,vanprod-2.3,2013-02-04 18:10:00,
2013-02-04 11:16:00,47.6,30.9,29.98,North,10,0.0,5.0,52,0.00,,,0.00,vanprod-2.3,2013-02-04 18:16:00,
2013-02-04 11:22:00,48.0,30.3,29.98,North,10,0.0,7.0,50,0.00,,,0.00,vanprod-2.3,2013-02-04 18:22:00,
2013-02-04 11:28:00,48.5,31.2,29.97,North,10,2.0,3.0,51,0.00,,,0.00,vanprod-2.3,2013-02-04 18:28:00,
2013-02-04 11:34:00,48.8,30.5,29.96,North,10,2.0,4.0,49,0.00,,,0.00,vanprod-2.3,2013-02-04 18:34:00,
2013-02-04 11:40:00,48.8,29.0,29.95,North,10,1.0,6.0,46,0.00,,,0.00,vanprod-2.3,2013-02-04 18:40:00,
2013-02-04 11:46:00,49.1,29.2,29.95,North,10,4.0,7.0,46,0.00,,,0.00,vanprod-2.3,2013-02-04 18:46:00,
2013-02-04 11:52:00,49.2,30.9,29.95,North,10,0.0,5.0,49,0.00,,,0.00,vanprod-2.3,2013-02-04 18:52:00,
2013-02-04 11:58:00,49.5,29.6,29.94,North,10,0.0,6.0,46,0.00,,,0.00,vanprod-2.3,2013-02-04 18:58:00,
2013-02-04 12:04:00,50.7,30.2,29.94,North,10,0.0,6.0,45,0.00,,,0.00,vanprod-2.3,2013-02-04 19:04:00,
2013-02-04 12:10:00,50.5,28.9,29.92,North,10,5.0,7.0,43,0.00,,,0.00,vanprod-2.3,2013-02-04 19:10:00,
2013-02-04 12:16:00,50.4,28.8,29.93,North,10,4.0,6.0,43,0.00,,,0.00,vanprod-2.3,2013-02-04 19:16:00,
2013-02-04 12:21:00,51.1,29.4,29.92,North,10,0.0,1.0,43,0.00,,,0.00,vanprod-2.3,2013-02-04 19:21:00,
2013-02-04 12:28:00,52.5,27.6,29.89,North,10,0.0,3.0,38,0.00,,,0.00,vanprod-2.3,2013-02-04 19:28:00,
2013-02-04 12:34:00,52.2,27.4,29.90,North,10,0.0,1.0,38,0.00,,,0.00,vanprod-2.3,2013-02-04 19:34:00,
2013-02-04 12:40:00,52.9,28.6,29.89,North,10,0.0,0.0,39,0.00,,,0.00,vanprod-2.3,2013-02-04 19:40:00,
2013-02-04 12:46:00,52.9,26.0,29.89,North,10,0.0,1.0,35,0.00,,,0.00,vanprod-2.3,2013-02-04 19:46:00,
2013-02-04 12:52:00,52.9,26.0,29.88,North,10,2.0,7.0,35,0.00,,,0.00,vanprod-2.3,2013-02-04 19:52:00,
2013-02-04 12:58:00,52.9,25.3,29.88,North,10,5.0,8.0,34,0.00,,,0.00,vanprod-2.3,2013-02-04 19:58:00,
2013-02-04 13:04:00,52.8,24.5,29.88,North,10,7.0,8.0,33,0.00,,,0.00,vanprod-2.3,2013-02-04 20:04:00,
2013-02-04 13:10:00,53.5,25.1,29.88,North,10,0.0,5.0,33,0.00,,,0.00,vanprod-2.3,2013-02-04 20:10:00,
2013-02-04 13:16:00,53.6,24.5,29.87,North,10,0.0,8.0,32,0.00,,,0.00,vanprod-2.3,2013-02-04 20:16:00,
2013-02-04 13:22:00,53.3,24.2,29.86,North,10,11.0,12.0,32,0.00,,,0.00,vanprod-2.3,2013-02-04 20:22:00,
2013-02-04 13:28:00,53.2,24.9,29.87,North,10,4.0,9.0,33,0.00,,,0.00,vanprod-2.3,2013-02-04 20:28:00,
2013-02-04 13:34:00,53.9,24.7,29.86,North,10,7.0,7.0,32,0.00,,,0.00,vanprod-2.3,2013-02-04 20:34:00,
2013-02-04 13:40:00,53.5,25.1,29.86,North,10,10.0,13.0,33,0.00,,,0.00,vanprod-2.3,2013-02-04 20:40:00,
2013-02-04 13:46:00,53.5,25.8,29.86,North,10,7.0,12.0,34,0.00,,,0.00,vanprod-2.3,2013-02-04 20:46:00,
2013-02-04 13:52:00,53.8,26.8,29.86,North,10,4.0,7.0,35,0.00,,,0.00,vanprod-2.3,2013-02-04 20:52:00,
2013-02-04 13:58:00,53.2,26.3,29.86,North,10,3.0,10.0,35,0.00,,,0.00,vanprod-2.3,2013-02-04 20:58:00,
2013-02-04 14:04:00,53.2,26.3,29.86,North,10,8.0,8.0,35,0.00,,,0.00,vanprod-2.3,2013-02-04 21:04:00,
2013-02-04 14:10:00,53.5,26.5,29.86,North,10,7.0,11.0,35,0.00,,,0.00,vanprod-2.3,2013-02-04 21:10:00,
2013-02-04 14:16:00,53.6,26.6,29.84,North,10,4.0,6.0,35,0.00,,,0.00,vanprod-2.3,2013-02-04 21:16:00,
2013-02-04 14:22:00,54.2,27.2,29.84,North,10,4.0,8.0,35,0.00,,,0.00,vanprod-2.3,2013-02-04 21:22:00,
2013-02-04 14:28:00,54.2,27.2,29.84,North,10,3.0,6.0,35,0.00,,,0.00,vanprod-2.3,2013-02-04 21:28:00,
2013-02-04 14:34:00,54.4,26.6,29.84,North,10,6.0,7.0,34,0.00,,,0.00,vanprod-2.3,2013-02-04 21:34:00,
2013-02-04 14:40:00,54.4,25.2,29.84,North,10,1.0,8.0,32,0.00,,,0.00,vanprod-2.3,2013-02-04 21:40:00,
2013-02-04 14:46:00,54.1,27.1,29.83,North,10,7.0,8.0,35,0.00,,,0.00,vanprod-2.3,2013-02-04 21:46:00,
2013-02-04 14:52:00,54.2,26.5,29.83,North,10,3.0,7.0,34,0.00,,,0.00,vanprod-2.3,2013-02-04 21:52:00,
2013-02-04 14:58:00,54.4,27.3,29.84,North,10,5.0,9.0,35,0.00,,,0.00,vanprod-2.3,2013-02-04 21:58:00,
2013-02-04 15:04:00,54.4,26.6,29.83,North,10,2.0,7.0,34,0.00,,,0.00,vanprod-2.3,2013-02-04 22:04:00,
2013-02-04 15:10:00,54.4,28.7,29.83,North,8,0.0,0.0,37,0.00,,,0.00,vanprod-2.3,2013-02-04 22:10:00,
2013-02-04 15:16:00,54.4,28.7,29.83,North,8,0.0,0.0,37,0.00,,,0.00,vanprod-2.3,2013-02-04 22:16:00,